Holden Village, Washington
Current Conditions -  °F | °C
As of 8:55 PM on Tuesday 21 Oct 2014 (Local Time) from KEAT Reporting Station
Clear Clear  
Wind Chill: 50°   Ceiling: Unl
Heat Index: 50°   Visibility: 10mi
Dew Point: 40°   Wind: 6mph
Humidity: 68%   Direction: 110°ESE
Pressure: 29.89"   Gusts: NA
Location:  47.9044°N, 120.153°W
Report Text: KEAT 220355Z AUTO 11005KT 10SM CLR 10/04 A2989 RMK AO2 SLP124 T01000044
Loading
Personal Weather Stations






























Interactive Weather Map
Tropical Storm Tracking
New forecast layout! Learn more

10-Day Weather Forecast

Advertisements
Track Severe Weather on mobile